Time;durP1;ratioP1;P1;durP2;ratioP2;P2;SDS_P1;SDS_P2;PMS_P1;PMS_P2;Temp;Humidity;BMP_temperature;BMP_pressure;BME280_temperature;BME280_humidity;BME280_pressure;Samples;Min_cycle;Max_cycle;Signal;HPM_P1;HPM_P2
2020/12/10 00:01:43;;;;;;;11.23;2.92;;;;;;;20.18;41.76;99267.38;4993961;28;20104;-81
2020/12/10 00:04:08;;;;;;;17.63;3.80;;;;;;;20.09;41.52;99264.31;4994131;28;20034;-81
2020/12/10 00:06:34;;;;;;;24.73;4.35;;;;;;;20.21;41.35;99271.31;4994134;28;20030;-80
2020/12/10 00:09:00;;;;;;;21.13;4.30;;;;;;;20.08;41.56;99270.25;4994117;28;20504;-80
2020/12/10 00:11:25;;;;;;;17.40;3.88;;;;;;;20.27;41.10;99269.66;4993981;28;20517;-81
2020/12/10 00:13:51;;;;;;;24.55;4.35;;;;;;;20.24;41.20;99268.47;4976191;28;20026;-80
2020/12/10 00:16:16;;;;;;;26.20;4.53;;;;;;;20.33;41.09;99276.34;4992656;28;20054;-81
2020/12/10 00:18:42;;;;;;;19.77;4.95;;;;;;;20.32;41.16;99271.97;4993394;28;20456;-81
2020/12/10 00:21:08;;;;;;;18.40;4.45;;;;;;;20.34;41.12;99274.34;4993786;28;20030;-81
2020/12/10 00:23:35;;;;;;;21.27;4.38;;;;;;;20.26;41.21;99279.19;4993923;28;20385;-80
2020/12/10 00:26:01;;;;;;;30.30;6.00;;;;;;;20.36;41.07;99275.50;4993880;28;20030;-80
2020/12/10 00:28:27;;;;;;;25.42;4.95;;;;;;;20.24;41.38;99282.34;4993201;28;20022;-80
2020/12/10 00:30:53;;;;;;;26.27;4.28;;;;;;;20.26;41.43;99278.41;4994035;28;20034;-80
2020/12/10 00:33:19;;;;;;;30.02;5.55;;;;;;;20.35;41.20;99284.22;4993592;28;20026;-80
2020/12/10 00:35:44;;;;;;;21.85;5.40;;;;;;;20.33;41.13;99281.88;4993685;28;20030;-79
2020/12/10 00:38:10;;;;;;;26.38;6.10;;;;;;;20.45;40.95;99291.66;4993414;28;20014;-80
2020/12/10 00:40:36;;;;;;;16.63;4.38;;;;;;;20.38;41.10;99284.19;4993566;28;20417;-79
2020/12/10 00:43:01;;;;;;;26.95;4.43;;;;;;;20.38;41.22;99286.16;4993436;28;20087;-80
2020/12/10 00:45:27;;;;;;;18.42;4.65;;;;;;;20.14;41.87;99290.81;4993518;28;20029;-83
2020/12/10 00:47:53;;;;;;;27.30;4.53;;;;;;;20.20;41.74;99289.16;4993432;28;20019;-79
2020/12/10 00:50:19;;;;;;;29.98;4.57;;;;;;;20.13;41.95;99280.91;4976037;28;20477;-79
2020/12/10 00:52:46;;;;;;;19.10;3.65;;;;;;;20.21;41.71;99291.50;4993301;28;20092;-79
2020/12/10 00:55:11;;;;;;;35.63;5.32;;;;;;;19.77;42.77;99286.03;4993379;28;20031;-79
2020/12/10 00:57:37;;;;;;;22.95;4.43;;;;;;;19.88;42.62;99286.72;4993432;28;20022;-80
2020/12/10 01:00:07;;;;;;;20.30;4.40;;;;;;;19.66;43.02;99288.91;4993261;28;20504;-80
2020/12/10 01:02:33;;;;;;;20.30;3.92;;;;;;;19.84;42.60;99291.50;4993443;28;20033;-80
2020/12/10 01:04:59;;;;;;;26.02;4.07;;;;;;;19.84;42.45;99295.06;4992956;28;20030;-81
2020/12/10 01:07:24;;;;;;;16.23;4.05;;;;;;;19.63;43.26;99287.72;4993294;28;20389;-82
2020/12/10 01:09:50;;;;;;;25.50;4.72;;;;;;;20.13;41.96;99292.00;4993172;28;20029;-81
2020/12/10 01:12:15;;;;;;;17.00;3.83;;;;;;;20.13;41.95;99283.69;4993067;28;20037;-81
2020/12/10 01:14:41;;;;;;;31.40;4.57;;;;;;;20.08;42.01;99282.13;4996468;28;20058;-80
2020/12/10 01:17:07;;;;;;;19.58;4.95;;;;;;;19.90;42.42;99290.66;4997303;28;20499;-80
2020/12/10 01:19:32;;;;;;;19.35;5.30;;;;;;;19.77;42.68;99289.56;4997467;28;20116;-81
2020/12/10 01:21:58;;;;;;;19.25;4.25;;;;;;;19.75;42.85;99288.41;4979714;28;20030;-82
2020/12/10 01:24:23;;;;;;;19.83;3.15;;;;;;;19.79;42.67;99286.38;4979687;28;20592;-80
2020/12/10 01:26:50;;;;;;;23.00;3.67;;;;;;;19.84;42.81;99288.72;4997190;28;20064;-80
2020/12/10 01:29:16;;;;;;;20.98;4.45;;;;;;;19.86;42.33;99283.56;4997062;28;20093;-81
2020/12/10 01:31:41;;;;;;;21.23;4.70;;;;;;;19.72;42.97;99284.47;4997024;28;20038;-81
2020/12/10 01:34:07;;;;;;;20.17;4.80;;;;;;;19.75;42.83;99293.97;4996968;28;20556;-82
2020/12/10 01:36:32;;;;;;;30.92;6.18;;;;;;;19.89;42.49;99296.59;4996969;28;20392;-80
2020/12/10 01:38:59;;;;;;;12.75;3.40;;;;;;;20.03;42.48;99293.69;4996726;28;20049;-82
2020/12/10 01:41:30;;;;;;;23.35;3.90;;;;;;;20.15;41.79;99287.59;4996918;28;20073;-81
2020/12/10 01:44:18;;;;;;;27.10;4.60;;;;;;;19.98;42.21;99307.22;4996811;28;20524;-82
2020/12/10 01:46:45;;;;;;;16.80;3.60;;;;;;;19.72;42.84;99308.63;4996854;28;20027;-80
2020/12/10 01:49:11;;;;;;;23.33;4.20;;;;;;;19.57;43.09;99307.94;4979300;28;20045;-80
2020/12/10 01:51:37;;;;;;;22.60;4.28;;;;;;;19.70;42.74;99311.03;4996807;28;20035;-80
2020/12/10 01:54:05;;;;;;;23.30;3.25;;;;;;;19.81;42.82;99318.06;4978934;28;20420;-81
2020/12/10 01:56:31;;;;;;;24.00;3.58;;;;;;;19.91;42.49;99322.72;4979074;28;20597;-80
2020/12/10 01:58:59;;;;;;;17.17;4.15;;;;;;;19.75;42.85;99318.91;4996558;28;20031;-81
2020/12/10 02:01:30;;;;;;;23.52;4.55;;;;;;;19.76;42.63;99318.50;4996563;28;20097;-81
2020/12/10 02:03:56;;;;;;;26.17;5.15;;;;;;;19.91;42.51;99319.94;4996482;28;20508;-80
2020/12/10 02:06:22;;;;;;;17.45;3.42;;;;;;;19.77;42.81;99320.06;4996283;28;20092;-81
2020/12/10 02:08:47;;;;;;;18.75;4.65;;;;;;;19.84;42.61;99316.44;4996072;28;20026;-80
2020/12/10 02:11:13;;;;;;;25.85;5.45;;;;;;;20.04;42.11;99316.66;4978854;28;20040;-81
2020/12/10 02:13:39;;;;;;;21.45;4.03;;;;;;;19.98;42.21;99318.28;4962672;28;20038;-80
2020/12/10 02:16:06;;;;;;;14.73;3.67;;;;;;;20.05;42.16;99323.78;4978684;28;20041;-82
2020/12/10 02:18:32;;;;;;;54.05;6.97;;;;;;;19.84;42.48;99317.22;4996108;28;20263;-80
2020/12/10 02:20:58;;;;;;;19.95;4.60;;;;;;;19.84;42.65;99324.75;4996086;28;20046;-80
2020/12/10 02:23:24;;;;;;;16.00;4.63;;;;;;;20.19;41.67;99324.41;4996105;28;20397;-82
2020/12/10 02:25:50;;;;;;;21.02;3.97;;;;;;;20.27;41.63;99319.59;4995362;28;20034;-83
2020/12/10 02:28:17;;;;;;;22.98;5.25;;;;;;;20.33;41.35;99328.22;4995897;28;20030;-80
2020/12/10 02:30:44;;;;;;;20.65;4.18;;;;;;;20.56;40.94;99330.41;4995933;28;20018;-81
2020/12/10 02:33:10;;;;;;;17.45;4.35;;;;;;;20.32;41.40;99329.44;4978347;28;20034;-81
2020/12/10 02:35:38;;;;;;;27.75;4.80;;;;;;;20.38;41.36;99328.56;4995738;28;20030;-80
2020/12/10 02:38:06;;;;;;;22.45;3.67;;;;;;;20.07;42.11;99332.47;4978630;28;20029;-80
2020/12/10 02:40:45;;;;;;;29.25;4.20;;;;;;;20.24;41.93;99321.19;4995544;28;20053;-81
2020/12/10 02:43:12;;;;;;;23.52;4.20;;;;;;;20.33;41.61;99329.03;4994583;28;20041;-80
2020/12/10 02:45:40;;;;;;;24.77;5.30;;;;;;;20.31;41.53;99325.88;4995580;28;20113;-80
2020/12/10 02:48:07;;;;;;;21.50;3.42;;;;;;;20.33;41.47;99326.25;4995744;28;20022;-80
2020/12/10 02:50:33;;;;;;;22.52;4.57;;;;;;;20.25;41.76;99324.75;4995552;28;20050;-80
2020/12/10 02:52:59;;;;;;;29.30;5.07;;;;;;;20.18;42.03;99339.50;4995590;28;20469;-80
2020/12/10 02:55:25;;;;;;;24.10;3.78;;;;;;;20.16;42.01;99343.84;4995483;28;20026;-81
2020/12/10 02:57:50;;;;;;;19.58;3.83;;;;;;;20.03;42.48;99348.38;4995717;28;20532;-81
2020/12/10 03:00:16;;;;;;;27.52;4.22;;;;;;;20.00;42.46;99355.50;4995498;28;20093;-81
2020/12/10 03:02:41;;;;;;;24.33;4.15;;;;;;;20.18;42.00;99356.13;4995337;28;20030;-80
2020/12/10 03:05:07;;;;;;;15.40;3.67;;;;;;;20.12;42.39;99359.75;4995332;28;20046;-80
2020/12/10 03:07:34;;;;;;;17.45;3.33;;;;;;;20.30;41.83;99370.66;4995446;28;20019;-80
2020/12/10 03:10:00;;;;;;;15.05;2.85;;;;;;;20.31;41.84;99372.22;4995246;28;20476;-81
2020/12/10 03:12:26;;;;;;;16.08;3.17;;;;;;;20.21;42.10;99369.16;4977705;28;20026;-81
2020/12/10 03:14:51;;;;;;;21.92;3.20;;;;;;;20.23;41.91;99371.53;4977726;28;20088;-81
2020/12/10 03:17:17;;;;;;;27.40;3.05;;;;;;;20.23;42.12;99380.63;4995121;28;20019;-83
2020/12/10 03:19:42;;;;;;;25.00;3.65;;;;;;;20.07;42.38;99379.59;4995152;28;20114;-81
2020/12/10 03:22:12;;;;;;;18.88;3.60;;;;;;;20.24;41.89;99375.84;4977983;28;20030;-80
2020/12/10 03:24:38;;;;;;;15.27;3.40;;;;;;;20.39;41.74;99373.72;4995230;28;20032;-81
2020/12/10 03:27:04;;;;;;;15.02;3.90;;;;;;;20.33;41.81;99373.41;4995129;28;20385;-82
2020/12/10 03:29:30;;;;;;;16.20;3.63;;;;;;;20.13;42.26;99377.97;4994864;28;20029;-80
2020/12/10 03:31:55;;;;;;;21.42;3.67;;;;;;;20.14;42.50;99385.09;4977280;28;20030;-80
2020/12/10 03:34:21;;;;;;;18.65;3.92;;;;;;;20.21;42.24;99385.00;4977060;28;20030;-80
2020/12/10 03:36:52;;;;;;;18.48;4.32;;;;;;;20.33;41.88;99390.06;4994003;28;20054;-80
2020/12/10 03:39:19;;;;;;;19.52;4.28;;;;;;;20.37;41.89;99398.34;4977143;28;20046;-82
2020/12/10 03:41:45;;;;;;;28.35;4.40;;;;;;;20.33;41.94;99398.38;4977213;28;20054;-80
2020/12/10 03:44:11;;;;;;;26.17;3.50;;;;;;;20.37;42.10;99392.78;4994568;28;20083;-80
2020/12/10 03:46:38;;;;;;;22.40;4.20;;;;;;;20.49;41.65;99395.06;4977046;28;20499;-80
2020/12/10 03:49:05;;;;;;;21.33;3.90;;;;;;;20.58;41.26;99392.59;4994416;28;20022;-80
2020/12/10 03:51:30;;;;;;;19.45;3.05;;;;;;;20.61;41.33;99397.31;4994274;28;20030;-80
2020/12/10 03:53:56;;;;;;;22.95;3.17;;;;;;;20.58;41.55;99397.38;4994433;28;20038;-82
2020/12/10 03:56:21;;;;;;;22.30;4.10;;;;;;;20.60;41.39;99392.97;4994438;28;20039;-83
2020/12/10 03:58:47;;;;;;;28.17;4.53;;;;;;;20.53;41.57;99383.94;4994323;28;20428;-81
2020/12/10 04:01:13;;;;;;;24.65;4.35;;;;;;;20.36;41.89;99386.44;4994296;28;20370;-80
2020/12/10 04:03:38;;;;;;;36.03;5.72;;;;;;;20.48;41.65;99385.19;4994284;28;20089;-80
2020/12/10 04:06:04;;;;;;;24.00;5.82;;;;;;;20.53;41.38;99387.50;4994164;28;20408;-80
2020/12/10 04:08:29;;;;;;;23.33;4.95;;;;;;;20.48;41.62;99383.19;4994154;28;20030;-80
2020/12/10 04:10:55;;;;;;;32.42;5.07;;;;;;;20.59;41.27;99382.28;4976520;28;20031;-81
2020/12/10 04:13:21;;;;;;;30.20;4.88;;;;;;;20.59;41.25;99373.97;4976447;28;20374;-81
2020/12/10 04:15:47;;;;;;;37.85;5.20;;;;;;;20.57;41.28;99384.69;4993977;28;20077;-80
2020/12/10 04:18:12;;;;;;;15.38;3.28;;;;;;;20.31;42.14;99381.34;4993922;28;20414;-80
2020/12/10 04:20:38;;;;;;;23.05;4.43;;;;;;;20.22;42.18;99400.44;4993959;28;20561;-80
2020/12/10 04:23:03;;;;;;;30.13;4.28;;;;;;;20.22;42.19;99394.91;4976465;28;20062;-79
2020/12/10 04:25:29;;;;;;;23.13;4.35;;;;;;;20.32;42.14;99387.66;4993755;28;20037;-81
2020/12/10 04:27:54;;;;;;;22.88;4.05;;;;;;;20.30;42.13;99385.31;4976442;28;20469;-80
2020/12/10 04:30:23;;;;;;;19.23;3.72;;;;;;;20.24;42.23;99386.97;4975445;28;20625;-81
2020/12/10 04:32:48;;;;;;;21.63;4.00;;;;;;;20.21;42.27;99387.78;4993150;28;20082;-81
2020/12/10 04:35:14;;;;;;;34.30;4.68;;;;;;;20.31;42.03;99392.44;4993625;28;20035;-80
2020/12/10 04:37:41;;;;;;;23.50;4.07;;;;;;;20.21;42.15;99382.25;4993882;28;20053;-80
2020/12/10 04:40:07;;;;;;;22.20;4.45;;;;;;;20.30;42.06;99381.75;4993189;28;20109;-80
2020/12/10 04:42:33;;;;;;;20.88;3.50;;;;;;;20.24;42.02;99386.97;4993508;28;20030;-81
2020/12/10 04:44:59;;;;;;;24.00;4.28;;;;;;;20.35;42.12;99384.09;4993465;28;20030;-81
2020/12/10 04:47:28;;;;;;;16.67;3.90;;;;;;;20.47;41.50;99384.38;4993096;28;20088;-82
2020/12/10 04:49:55;;;;;;;23.70;3.80;;;;;;;20.46;41.54;99385.56;4993520;28;20054;-81
2020/12/10 04:52:22;;;;;;;16.67;3.75;;;;;;;20.57;41.41;99393.00;4993343;28;20042;-80
2020/12/10 04:54:49;;;;;;;17.27;3.08;;;;;;;20.59;41.25;99388.63;4993397;28;20074;-81
2020/12/10 04:57:17;;;;;;;22.58;3.63;;;;;;;20.63;40.92;99389.38;4993357;28;20473;-80
2020/12/10 04:59:43;;;;;;;23.90;3.88;;;;;;;20.63;41.17;99394.13;4993379;28;20022;-80
2020/12/10 05:02:12;;;;;;;23.92;5.22;;;;;;;20.47;41.59;99383.59;4993301;28;20037;-80
2020/12/10 05:04:41;;;;;;;29.48;3.95;;;;;;;20.59;41.27;99396.94;4993225;28;20027;-80
2020/12/10 05:07:06;;;;;;;31.63;6.17;;;;;;;20.64;41.02;99390.16;4975862;28;20025;-81
2020/12/10 05:09:33;;;;;;;26.90;5.07;;;;;;;20.30;41.86;99395.63;4993289;28;20102;-79
2020/12/10 05:11:59;;;;;;;24.95;6.35;;;;;;;20.21;42.20;99404.44;4993207;28;20113;-80
2020/12/10 05:14:24;;;;;;;47.53;5.95;;;;;;;20.16;42.37;99405.66;4993211;28;20077;-80
2020/12/10 05:17:10;;;;;;;26.10;5.38;;;;;;;20.13;42.42;99414.78;4993208;28;20022;-80
2020/12/10 05:19:36;;;;;;;36.83;6.32;;;;;;;20.21;42.31;99421.84;4993245;28;20405;-80
2020/12/10 05:22:04;;;;;;;29.67;5.80;;;;;;;20.41;41.77;99418.53;4993059;28;20034;-80
2020/12/10 05:24:30;;;;;;;30.38;5.55;;;;;;;20.56;41.44;99419.19;4993161;28;20034;-84
2020/12/10 05:27:21;;;;;;;26.92;4.55;;;;;;;20.54;41.46;99425.13;4993120;28;20026;-80
2020/12/10 05:29:49;;;;;;;26.95;5.32;;;;;;;20.64;41.20;99429.00;4993090;28;20026;-82
2020/12/10 05:32:36;;;;;;;24.42;4.38;;;;;;;20.46;41.58;99427.19;4992938;28;20492;-79
2020/12/10 05:35:13;;;;;;;29.58;4.55;;;;;;;20.45;41.54;99433.16;4993119;28;20034;-80
2020/12/10 05:37:40;;;;;;;24.13;4.03;;;;;;;20.45;41.67;99435.94;4992968;28;20034;-81
2020/12/10 05:40:06;;;;;;;21.50;4.82;;;;;;;20.46;41.69;99443.84;4992929;28;20081;-81
2020/12/10 05:42:46;;;;;;;35.38;6.15;;;;;;;20.45;41.82;99447.03;4975520;28;20035;-80
2020/12/10 05:45:16;;;;;;;29.17;4.88;;;;;;;20.60;41.19;99442.13;4993023;28;20073;-80
2020/12/10 05:47:52;;;;;;;24.90;4.72;;;;;;;20.26;42.09;99442.81;4992938;28;20062;-80
2020/12/10 05:50:26;;;;;;;22.95;4.20;;;;;;;20.47;41.46;99439.06;4992952;28;20064;-80
2020/12/10 05:52:59;;;;;;;22.73;4.40;;;;;;;20.20;42.09;99441.69;4975463;28;20038;-80
2020/12/10 05:55:25;;;;;;;26.25;4.65;;;;;;;20.15;42.27;99428.25;4992937;28;20027;-80
2020/12/10 05:57:51;;;;;;;29.75;6.28;;;;;;;20.10;42.23;99425.91;4992783;28;20477;-81
2020/12/10 06:00:16;;;;;;;39.03;9.68;;;;;;;19.99;42.78;99428.78;4994985;28;20425;-80
2020/12/10 06:02:42;;;;;;;36.95;5.25;;;;;;;19.93;42.91;99431.19;4996443;28;20113;-80
2020/12/10 06:05:09;;;;;;;27.83;5.45;;;;;;;19.97;42.90;99424.84;4996499;28;20485;-82
2020/12/10 06:07:35;;;;;;;39.40;8.18;;;;;;;20.01;42.71;99420.81;4996280;28;20034;-80
2020/12/10 06:10:02;;;;;;;39.40;6.85;;;;;;;20.04;42.42;99424.78;4996370;28;20022;-79
2020/12/10 06:12:28;;;;;;;33.28;6.53;;;;;;;19.99;42.66;99428.00;4996271;28;20125;-80
2020/12/10 06:14:55;;;;;;;38.97;8.70;;;;;;;20.03;42.51;99424.00;4996222;28;20105;-80
2020/12/10 06:17:21;;;;;;;32.42;7.25;;;;;;;20.02;42.51;99429.94;4996144;28;20034;-80
2020/12/10 06:19:47;;;;;;;38.40;8.27;;;;;;;20.05;42.29;99429.13;4996191;28;20060;-81
2020/12/10 06:22:36;;;;;;;43.58;9.23;;;;;;;19.97;42.51;99433.94;4996077;28;20030;-80
2020/12/10 06:25:28;;;;;;;54.90;11.50;;;;;;;19.78;43.10;99429.72;4996024;28;20097;-81
2020/12/10 06:28:17;;;;;;;41.72;8.20;;;;;;;19.82;42.76;99426.94;4995951;28;20034;-80
2020/12/10 06:31:01;;;;;;;64.10;12.40;;;;;;;19.77;42.78;99419.81;4995947;28;20114;-83
2020/12/10 06:33:39;;;;;;;47.70;8.38;;;;;;;19.91;42.43;99421.72;4995939;28;20298;-82
2020/12/10 06:36:24;;;;;;;59.03;8.35;;;;;;;19.84;42.73;99432.84;4994939;28;20038;-80
2020/12/10 06:38:51;;;;;;;45.97;9.07;;;;;;;20.04;42.34;99438.66;4994160;28;20109;-79
2020/12/10 06:41:17;;;;;;;49.22;9.15;;;;;;;20.03;42.18;99442.63;4977252;28;20141;-80
2020/12/10 06:43:43;;;;;;;44.00;6.50;;;;;;;19.98;42.52;99451.38;4993866;28;20520;-81
2020/12/10 06:46:09;;;;;;;31.27;6.43;;;;;;;20.15;42.18;99444.88;4993477;28;20054;-82
2020/12/10 06:49:00;;;;;;;37.38;7.88;;;;;;;20.13;42.02;99425.88;4994915;28;20057;-81
2020/12/10 06:51:26;;;;;;;24.70;7.28;;;;;;;20.06;42.35;99425.16;4993203;28;20139;-83
2020/12/10 06:54:01;;;;;;;23.60;5.68;;;;;;;20.03;42.37;99426.00;4993814;28;20472;-84
2020/12/10 06:56:31;;;;;;;40.45;6.13;;;;;;;19.79;42.87;99427.72;4985227;28;20480;-81
2020/12/10 06:59:01;;;;;;;46.30;7.38;;;;;;;19.62;43.33;99432.22;4970883;28;20030;-81
2020/12/10 07:01:38;;;;;;;43.97;7.80;;;;;;;19.73;43.05;99430.16;4965472;28;20117;-81
2020/12/10 07:07:09;;;;;;;41.70;8.38;;;;;;;19.53;43.63;99421.53;4979998;28;20030;-81
2020/12/10 07:09:55;;;;;;;35.30;7.05;;;;;;;19.59;43.58;99419.97;4970685;28;20442;-79
2020/12/10 07:12:22;;;;;;;36.65;8.48;;;;;;;19.50;43.68;99421.59;4972201;28;20037;-80
2020/12/10 07:14:50;;;;;;;36.40;7.75;;;;;;;19.51;43.69;99421.16;4990434;28;20026;-80
2020/12/10 07:17:16;;;;;;;43.97;8.77;;;;;;;19.60;43.64;99424.31;4975627;28;20552;-80
2020/12/10 07:19:41;;;;;;;32.25;7.78;;;;;;;19.57;43.73;99421.53;4973218;28;20240;-80
2020/12/10 07:22:07;;;;;;;35.28;7.53;;;;;;;19.63;43.47;99411.63;4988758;28;20087;-80
2020/12/10 07:24:33;;;;;;;24.80;7.55;;;;;;;19.65;43.45;99420.31;4988701;28;20042;-79
2020/12/10 07:26:58;;;;;;;23.95;6.95;;;;;;;19.74;43.43;99431.75;4989701;28;20473;-80
2020/12/10 07:29:24;;;;;;;16.48;6.20;;;;;;;19.69;43.48;99421.06;4989307;28;20026;-80
2020/12/10 07:31:49;;;;;;;17.85;5.82;;;;;;;19.71;43.53;99427.00;4973065;28;20030;-80
2020/12/10 07:34:15;;;;;;;15.95;6.35;;;;;;;19.84;43.12;99438.41;4986365;28;20469;-80
2020/12/10 07:36:50;;;;;;;20.00;7.03;;;;;;;19.82;43.18;99441.56;4973503;28;20410;-81
2020/12/10 07:39:27;;;;;;;18.15;7.38;;;;;;;19.85;43.18;99446.28;4969665;28;20061;-78
2020/12/10 07:41:53;;;;;;;17.48;7.57;;;;;;;19.87;43.19;99445.88;4976029;28;20034;-83
2020/12/10 07:44:26;;;;;;;17.42;7.70;;;;;;;19.75;43.37;99452.72;4982838;28;20019;-79
2020/12/10 07:46:52;;;;;;;21.55;9.75;;;;;;;19.69;43.76;99457.09;4977095;28;20065;-79
2020/12/10 07:49:24;;;;;;;30.65;13.35;;;;;;;19.82;43.65;99444.34;4981569;28;20022;-80
2020/12/10 07:51:50;;;;;;;37.88;13.80;;;;;;;19.82;43.47;99441.56;4977609;28;20473;-81
2020/12/10 07:54:16;;;;;;;32.83;13.15;;;;;;;19.85;43.52;99440.75;4985112;28;20070;-79
2020/12/10 07:56:44;;;;;;;30.23;14.00;;;;;;;19.83;43.53;99442.38;4977004;28;20035;-81
2020/12/10 07:59:13;;;;;;;33.00;12.75;;;;;;;19.65;44.23;99443.28;4990981;28;20028;-81
2020/12/10 08:02:10;;;;;;;35.30;12.88;;;;;;;19.77;43.85;99432.91;4968990;28;20820;-78
2020/12/10 08:04:42;;;;;;;32.05;12.65;;;;;;;19.83;43.73;99422.97;4972860;28;20057;-80
2020/12/10 08:07:12;;;;;;;41.70;15.88;;;;;;;19.97;43.25;99425.63;4988124;28;20363;-79
2020/12/10 08:09:38;;;;;;;36.08;13.52;;;;;;;19.92;43.23;99421.31;4971128;28;20381;-80
2020/12/10 08:12:03;;;;;;;36.97;15.25;;;;;;;19.87;43.36;99430.03;4982419;28;20022;-79
2020/12/10 08:14:30;;;;;;;29.00;12.07;;;;;;;19.91;43.31;99430.03;4976109;28;20046;-82
2020/12/10 08:16:58;;;;;;;30.48;13.20;;;;;;;19.99;42.93;99430.75;4988284;28;20542;-81
2020/12/10 08:19:26;;;;;;;26.70;12.13;;;;;;;19.74;43.51;99436.50;4982977;28;20030;-81
2020/12/10 08:21:53;;;;;;;24.23;11.93;;;;;;;19.80;43.16;99440.38;4991888;28;20026;-81
2020/12/10 08:24:42;;;;;;;26.85;11.35;;;;;;;19.86;43.07;99442.31;4983539;28;20381;-80
2020/12/10 08:27:16;;;;;;;29.88;11.80;;;;;;;19.79;43.08;99439.59;4987493;28;20026;-81
2020/12/10 08:30:01;;;;;;;22.60;11.75;;;;;;;19.73;43.24;99446.78;4982818;28;20026;-81
2020/12/10 08:32:27;;;;;;;28.20;13.35;;;;;;;19.75;43.26;99447.16;4978205;28;20497;-81
2020/12/10 08:35:04;;;;;;;29.15;13.07;;;;;;;19.59;43.69;99447.66;4988945;28;20023;-79
2020/12/10 08:37:40;;;;;;;27.20;11.95;;;;;;;19.62;43.34;99460.69;4980891;28;20126;-82
2020/12/10 08:40:07;;;;;;;30.27;11.88;;;;;;;19.60;43.37;99462.31;4968373;28;20431;-80
2020/12/10 08:42:33;;;;;;;30.50;12.75;;;;;;;19.74;43.18;99462.22;4972375;28;20035;-82
2020/12/10 08:44:58;;;;;;;23.63;11.80;;;;;;;19.76;42.92;99465.38;4957079;28;20018;-79
2020/12/10 08:47:26;;;;;;;30.23;12.30;;;;;;;19.77;42.84;99463.38;4989306;28;20023;-79
2020/12/10 08:50:25;;;;;;;27.85;12.35;;;;;;;19.64;43.13;99460.28;4981211;28;20034;-79
2020/12/10 08:53:00;;;;;;;25.43;11.77;;;;;;;19.74;42.82;99453.91;4987809;28;20547;-82
2020/12/10 08:55:49;;;;;;;21.77;10.98;;;;;;;19.70;42.96;99460.66;4953738;28;20039;-79
2020/12/10 08:58:19;;;;;;;26.20;12.25;;;;;;;19.46;43.28;99465.91;4986181;28;20161;-79
2020/12/10 09:00:44;;;;;;;25.55;11.98;;;;;;;19.53;43.00;99468.66;4985584;28;20101;-80
2020/12/10 09:03:10;;;;;;;23.33;11.98;;;;;;;19.67;43.06;99463.06;4985908;28;20240;-81
2020/12/10 09:05:36;;;;;;;26.90;11.48;;;;;;;19.60;42.96;99471.41;4985460;28;20022;-81
2020/12/10 09:08:01;;;;;;;24.60;10.88;;;;;;;19.61;42.93;99484.06;4986305;28;20049;-83
2020/12/10 09:10:30;;;;;;;24.40;12.23;;;;;;;19.55;43.11;99490.41;4983177;28;20037;-81
2020/12/10 09:12:57;;;;;;;22.98;11.13;;;;;;;19.34;43.46;99480.19;4979916;28;20080;-82
2020/12/10 09:15:23;;;;;;;20.13;12.38;;;;;;;19.48;43.05;99479.34;4989032;28;20022;-81
2020/12/10 09:17:49;;;;;;;22.80;12.80;;;;;;;19.46;43.12;99481.75;4980132;28;20031;-80
2020/12/10 09:20:16;;;;;;;21.85;12.50;;;;;;;19.38;43.24;99479.00;4986053;28;20039;-81
2020/12/10 09:22:41;;;;;;;22.13;12.43;;;;;;;19.45;43.17;99480.16;4982214;28;20026;-81
2020/12/10 09:25:07;;;;;;;25.52;13.82;;;;;;;19.47;43.13;99483.31;4982887;28;20109;-78
2020/12/10 09:27:34;;;;;;;21.52;13.65;;;;;;;19.49;43.17;99472.59;4978213;28;20366;-80
2020/12/10 09:29:59;;;;;;;24.17;12.30;;;;;;;19.55;43.01;99477.34;4987716;28;20018;-78
2020/12/10 09:32:25;;;;;;;20.90;12.27;;;;;;;19.54;42.91;99472.97;4985629;28;20034;-79
2020/12/10 09:34:52;;;;;;;18.02;11.23;;;;;;;19.53;42.87;99471.41;4984603;28;20484;-81
2020/12/10 09:37:17;;;;;;;18.17;10.40;;;;;;;19.33;43.15;99468.34;4986889;28;20114;-79
2020/12/10 09:39:43;;;;;;;16.83;10.38;;;;;;;19.35;43.21;99465.97;4985403;28;20043;-80
2020/12/10 09:42:09;;;;;;;14.80;10.25;;;;;;;19.38;43.09;99467.13;4991472;28;20042;-80
2020/12/10 09:44:34;;;;;;;15.13;9.43;;;;;;;19.13;43.45;99465.28;4983029;28;20396;-78
2020/12/10 09:47:00;;;;;;;18.27;9.77;;;;;;;19.17;43.35;99465.25;4994448;28;20041;-80
2020/12/10 09:49:25;;;;;;;18.98;10.73;;;;;;;19.18;43.10;99466.81;4972563;28;20037;-79
2020/12/10 09:51:56;;;;;;;16.90;10.10;;;;;;;19.00;43.46;99455.81;4972376;28;20472;-81
2020/12/10 09:59:25;;;;;;;13.77;9.73;;;;;;;19.29;42.83;99447.41;4983431;28;20424;-79
2020/12/10 10:01:51;;;;;;;17.00;10.60;;;;;;;19.41;42.62;99455.25;4995783;28;20045;-80
2020/12/10 10:04:17;;;;;;;17.25;10.60;;;;;;;19.23;43.25;99458.09;4994384;28;21298;-81
2020/12/10 10:06:43;;;;;;;18.90;12.68;;;;;;;19.36;42.91;99450.16;4977722;28;20049;-81
2020/12/10 10:09:09;;;;;;;16.10;11.20;;;;;;;19.44;42.55;99442.59;4978748;28;20045;-82
2020/12/10 10:11:35;;;;;;;16.80;10.82;;;;;;;19.60;42.28;99437.38;4978149;28;20038;-79
2020/12/10 10:14:00;;;;;;;15.32;10.77;;;;;;;19.77;41.95;99444.00;4995013;28;20038;-82
2020/12/10 10:16:27;;;;;;;17.38;11.63;;;;;;;19.36;42.49;99439.84;4978769;28;20030;-78
2020/12/10 10:18:53;;;;;;;18.88;12.52;;;;;;;19.49;42.30;99437.38;4996154;28;20034;-79
2020/12/10 10:21:19;;;;;;;21.90;11.98;;;;;;;19.39;42.27;99422.41;4978534;28;20084;-82
2020/12/10 10:23:45;;;;;;;20.33;12.32;;;;;;;19.25;42.57;99432.78;4994164;28;20035;-80
2020/12/10 10:26:11;;;;;;;19.23;11.30;;;;;;;19.31;42.39;99426.41;4978692;28;20109;-80
2020/12/10 10:28:36;;;;;;;20.85;12.07;;;;;;;19.31;42.47;99431.94;4995375;28;20062;-81
2020/12/10 10:31:02;;;;;;;21.20;12.45;;;;;;;19.40;42.44;99426.75;4995110;28;20093;-81
2020/12/10 10:33:28;;;;;;;20.13;12.35;;;;;;;19.43;42.21;99421.63;4994601;28;20400;-79
2020/12/10 10:35:54;;;;;;;20.23;11.15;;;;;;;19.38;42.49;99426.38;4993977;28;20030;-79
2020/12/10 10:38:21;;;;;;;17.55;10.82;;;;;;;19.59;41.90;99410.88;4995900;28;20037;-84
2020/12/10 10:40:46;;;;;;;18.42;11.07;;;;;;;19.61;41.99;99411.25;4978085;28;20489;-79
2020/12/10 10:43:12;;;;;;;17.70;10.38;;;;;;;19.66;41.92;99408.03;4994311;28;20037;-80
2020/12/10 10:45:37;;;;;;;17.15;10.20;;;;;;;19.73;41.62;99413.53;4977785;28;20030;-79
2020/12/10 10:48:03;;;;;;;16.85;8.77;;;;;;;19.83;41.77;99409.88;4977399;28;20026;-79
2020/12/10 10:50:29;;;;;;;18.20;10.13;;;;;;;19.67;42.07;99406.84;4995717;28;20048;-80
2020/12/10 10:52:54;;;;;;;16.90;9.75;;;;;;;19.71;42.04;99395.72;4978575;28;20038;-79
2020/12/10 10:55:20;;;;;;;14.70;9.15;;;;;;;19.94;41.40;99391.19;4994692;28;20096;-80
2020/12/10 10:57:45;;;;;;;28.17;10.80;;;;;;;19.91;41.48;99374.59;4994911;28;20027;-80
2020/12/10 11:00:11;;;;;;;14.55;8.50;;;;;;;19.85;41.79;99367.91;4995325;28;20034;-82
2020/12/10 11:02:36;;;;;;;17.05;10.18;;;;;;;19.83;41.88;99371.09;4994443;28;20038;-79
2020/12/10 11:05:02;;;;;;;14.93;8.50;;;;;;;20.05;41.49;99368.13;4995238;28;20530;-81
2020/12/10 11:07:28;;;;;;;15.65;8.85;;;;;;;20.14;41.39;99362.91;4995106;28;20628;-82
2020/12/10 11:09:54;;;;;;;15.40;8.25;;;;;;;20.09;41.35;99369.66;4994438;28;20058;-80
2020/12/10 11:12:19;;;;;;;17.42;8.43;;;;;;;19.85;41.92;99354.03;4995260;28;20097;-79
2020/12/10 11:14:46;;;;;;;13.82;7.80;;;;;;;19.91;41.67;99353.19;4995421;28;20022;-80
2020/12/10 11:17:11;;;;;;;15.02;7.80;;;;;;;20.05;41.39;99341.19;4994128;28;20022;-82
2020/12/10 11:19:37;;;;;;;14.90;8.13;;;;;;;20.12;41.14;99334.81;4994203;28;20049;-82
2020/12/10 11:22:03;;;;;;;14.43;7.55;;;;;;;20.05;41.37;99330.09;4994822;28;20507;-80
2020/12/10 11:24:28;;;;;;;11.80;7.35;;;;;;;20.05;41.29;99326.56;4994234;28;20026;-81
2020/12/10 11:26:55;;;;;;;14.63;7.68;;;;;;;19.93;41.37;99322.28;4976588;28;20120;-79
2020/12/10 11:29:20;;;;;;;13.95;6.97;;;;;;;19.92;41.48;99318.72;4995043;28;20030;-83
2020/12/10 11:31:46;;;;;;;14.25;7.60;;;;;;;19.82;41.67;99311.31;4977591;28;20155;-80
2020/12/10 11:34:12;;;;;;;13.57;7.93;;;;;;;19.81;41.46;99311.72;4986005;28;20494;-80
2020/12/10 11:36:38;;;;;;;16.27;8.88;;;;;;;19.72;41.65;99303.06;4975141;28;20034;-79